sensor_id;sensor_type;location;lat;lon;timestamp;temperature;humidity
74923;HTU21D;64715;44.760;37.678;2023-07-29T00:00:50;19.38;69.13
74923;HTU21D;64715;44.760;37.678;2023-07-29T00:01:51;19.37;69.20
74923;HTU21D;64715;44.760;37.678;2023-07-29T00:02:54;19.38;69.24
74923;HTU21D;64715;44.760;37.678;2023-07-29T00:03:55;19.37;69.19
74923;HTU21D;64715;44.760;37.678;2023-07-29T00:04:56;19.37;69.18
74923;HTU21D;64715;44.760;37.678;2023-07-29T00:05:57;19.36;69.16
74923;HTU21D;64715;44.760;37.678;2023-07-29T00:06:58;19.35;69.26
74923;HTU21D;64715;44.760;37.678;2023-07-29T00:07:59;19.36;69.33
74923;HTU21D;64715;44.760;37.678;2023-07-29T00:09:01;19.33;69.17
74923;HTU21D;64715;44.760;37.678;2023-07-29T00:10:03;19.32;69.18
74923;HTU21D;64715;44.760;37.678;2023-07-29T00:11:04;19.30;69.21
74923;HTU21D;64715;44.760;37.678;2023-07-29T00:12:05;19.30;69.33
74923;HTU21D;64715;44.760;37.678;2023-07-29T00:13:07;19.28;69.33
74923;HTU21D;64715;44.760;37.678;2023-07-29T00:14:08;19.28;69.33
74923;HTU21D;64715;44.760;37.678;2023-07-29T00:15:09;19.28;69.46
74923;HTU21D;64715;44.760;37.678;2023-07-29T00:16:10;19.26;69.34
74923;HTU21D;64715;44.760;37.678;2023-07-29T00:17:11;19.26;69.36
74923;HTU21D;64715;44.760;37.678;2023-07-29T00:18:12;19.25;69.56
74923;HTU21D;64715;44.760;37.678;2023-07-29T00:19:14;19.25;69.58
74923;HTU21D;64715;44.760;37.678;2023-07-29T00:20:14;19.23;69.64
74923;HTU21D;64715;44.760;37.678;2023-07-29T00:21:16;19.22;69.44
74923;HTU21D;64715;44.760;37.678;2023-07-29T00:22:16;19.21;69.61
74923;HTU21D;64715;44.760;37.678;2023-07-29T00:23:18;19.21;69.61
74923;HTU21D;64715;44.760;37.678;2023-07-29T00:24:22;19.20;69.61
74923;HTU21D;64715;44.760;37.678;2023-07-29T00:25:23;19.20;69.63
74923;HTU21D;64715;44.760;37.678;2023-07-29T00:26:24;19.18;69.61
74923;HTU21D;64715;44.760;37.678;2023-07-29T00:27:26;19.16;69.71
74923;HTU21D;64715;44.760;37.678;2023-07-29T00:28:29;19.13;69.74
74923;HTU21D;64715;44.760;37.678;2023-07-29T00:29:30;19.14;69.72
74923;HTU21D;64715;44.760;37.678;2023-07-29T00:30:31;19.13;69.76
74923;HTU21D;64715;44.760;37.678;2023-07-29T00:31:32;19.13;69.85
74923;HTU21D;64715;44.760;37.678;2023-07-29T00:32:35;19.10;69.80
74923;HTU21D;64715;44.760;37.678;2023-07-29T00:33:37;19.09;69.78
74923;HTU21D;64715;44.760;37.678;2023-07-29T00:34:38;19.09;69.79
74923;HTU21D;64715;44.760;37.678;2023-07-29T00:35:39;19.07;69.85
74923;HTU21D;64715;44.760;37.678;2023-07-29T00:36:40;19.06;69.94
74923;HTU21D;64715;44.760;37.678;2023-07-29T00:37:41;19.05;70.05
74923;HTU21D;64715;44.760;37.678;2023-07-29T00:38:42;19.03;69.90
74923;HTU21D;64715;44.760;37.678;2023-07-29T00:39:43;19.02;69.98
74923;HTU21D;64715;44.760;37.678;2023-07-29T00:40:44;19.00;70.04
74923;HTU21D;64715;44.760;37.678;2023-07-29T00:41:45;18.98;70.19
74923;HTU21D;64715;44.760;37.678;2023-07-29T00:42:48;18.98;70.10
74923;HTU21D;64715;44.760;37.678;2023-07-29T00:43:50;18.95;70.16
74923;HTU21D;64715;44.760;37.678;2023-07-29T00:44:51;18.93;70.15
74923;HTU21D;64715;44.760;37.678;2023-07-29T00:45:52;18.92;70.13
74923;HTU21D;64715;44.760;37.678;2023-07-29T00:46:54;18.88;70.17
74923;HTU21D;64715;44.760;37.678;2023-07-29T00:47:56;18.88;70.29
74923;HTU21D;64715;44.760;37.678;2023-07-29T00:48:57;18.85;70.29
74923;HTU21D;64715;44.760;37.678;2023-07-29T00:49:58;18.83;70.35
74923;HTU21D;64715;44.760;37.678;2023-07-29T00:50:59;18.80;70.33
74923;HTU21D;64715;44.760;37.678;2023-07-29T00:52:02;18.77;70.42
74923;HTU21D;64715;44.760;37.678;2023-07-29T00:53:03;18.73;70.50
74923;HTU21D;64715;44.760;37.678;2023-07-29T00:54:04;18.73;70.58
74923;HTU21D;64715;44.760;37.678;2023-07-29T00:55:06;18.71;70.60
74923;HTU21D;64715;44.760;37.678;2023-07-29T00:56:07;18.69;70.61
74923;HTU21D;64715;44.760;37.678;2023-07-29T00:57:10;18.66;70.78
74923;HTU21D;64715;44.760;37.678;2023-07-29T00:58:12;18.64;70.72
74923;HTU21D;64715;44.760;37.678;2023-07-29T00:59:13;18.62;70.81
74923;HTU21D;64715;44.760;37.678;2023-07-29T01:00:15;18.59;70.99
74923;HTU21D;64715;44.760;37.678;2023-07-29T01:01:16;18.55;71.10
74923;HTU21D;64715;44.760;37.678;2023-07-29T01:02:18;18.54;71.06
74923;HTU21D;64715;44.760;37.678;2023-07-29T01:03:19;18.53;71.04
74923;HTU21D;64715;44.760;37.678;2023-07-29T01:04:20;18.50;71.15
74923;HTU21D;64715;44.760;37.678;2023-07-29T01:05:21;18.48;71.16
74923;HTU21D;64715;44.760;37.678;2023-07-29T01:09:03;18.39;71.11
74923;HTU21D;64715;44.760;37.678;2023-07-29T01:12:40;18.27;71.51
74923;HTU21D;64715;44.760;37.678;2023-07-29T01:13:49;18.25;71.45
74923;HTU21D;64715;44.760;37.678;2023-07-29T01:15:04;18.22;71.61
74923;HTU21D;64715;44.760;37.678;2023-07-29T01:16:13;18.17;71.64
74923;HTU21D;64715;44.760;37.678;2023-07-29T01:17:23;18.13;71.71
74923;HTU21D;64715;44.760;37.678;2023-07-29T01:18:28;18.10;71.68
74923;HTU21D;64715;44.760;37.678;2023-07-29T01:20:04;18.06;71.92
74923;HTU21D;64715;44.760;37.678;2023-07-29T01:21:09;18.02;71.98
74923;HTU21D;64715;44.760;37.678;2023-07-29T01:22:13;18.00;72.01
74923;HTU21D;64715;44.760;37.678;2023-07-29T01:23:16;17.96;72.33
74923;HTU21D;64715;44.760;37.678;2023-07-29T01:24:17;17.96;72.38
74923;HTU21D;64715;44.760;37.678;2023-07-29T01:25:18;17.94;72.51
74923;HTU21D;64715;44.760;37.678;2023-07-29T01:26:19;17.92;72.51
74923;HTU21D;64715;44.760;37.678;2023-07-29T01:27:20;17.91;72.70
74923;HTU21D;64715;44.760;37.678;2023-07-29T01:28:21;17.89;72.76
74923;HTU21D;64715;44.760;37.678;2023-07-29T01:29:22;17.88;72.74
74923;HTU21D;64715;44.760;37.678;2023-07-29T01:30:29;17.85;72.90
74923;HTU21D;64715;44.760;37.678;2023-07-29T01:31:39;17.84;73.09
74923;HTU21D;64715;44.760;37.678;2023-07-29T01:33:02;17.82;72.90
74923;HTU21D;64715;44.760;37.678;2023-07-29T01:34:13;17.79;72.90
74923;HTU21D;64715;44.760;37.678;2023-07-29T01:35:58;17.77;73.05
74923;HTU21D;64715;44.760;37.678;2023-07-29T01:36:52;17.74;73.02
74923;HTU21D;64715;44.760;37.678;2023-07-29T01:38:07;17.70;73.20
74923;HTU21D;64715;44.760;37.678;2023-07-29T01:39:11;17.68;73.19
74923;HTU21D;64715;44.760;37.678;2023-07-29T01:40:13;17.66;73.28
74923;HTU21D;64715;44.760;37.678;2023-07-29T01:41:16;17.65;73.41
74923;HTU21D;64715;44.760;37.678;2023-07-29T01:42:18;17.63;73.61
74923;HTU21D;64715;44.760;37.678;2023-07-29T01:43:19;17.61;73.76
74923;HTU21D;64715;44.760;37.678;2023-07-29T01:44:24;17.61;73.72
74923;HTU21D;64715;44.760;37.678;2023-07-29T01:45:26;17.61;73.88
74923;HTU21D;64715;44.760;37.678;2023-07-29T01:46:27;17.60;73.95
74923;HTU21D;64715;44.760;37.678;2023-07-29T01:47:28;17.59;74.14
74923;HTU21D;64715;44.760;37.678;2023-07-29T01:48:29;17.60;74.26
74923;HTU21D;64715;44.760;37.678;2023-07-29T01:49:32;17.60;74.41
74923;HTU21D;64715;44.760;37.678;2023-07-29T01:50:34;17.59;74.31
74923;HTU21D;64715;44.760;37.678;2023-07-29T01:51:36;17.59;74.51
74923;HTU21D;64715;44.760;37.678;2023-07-29T01:52:37;17.59;74.59
74923;HTU21D;64715;44.760;37.678;2023-07-29T01:53:38;17.58;74.56
74923;HTU21D;64715;44.760;37.678;2023-07-29T01:54:39;17.58;74.60
74923;HTU21D;64715;44.760;37.678;2023-07-29T01:55:42;17.56;74.61
74923;HTU21D;64715;44.760;37.678;2023-07-29T01:56:45;17.55;74.60
74923;HTU21D;64715;44.760;37.678;2023-07-29T01:57:46;17.54;74.67
74923;HTU21D;64715;44.760;37.678;2023-07-29T01:58:48;17.54;74.67
74923;HTU21D;64715;44.760;37.678;2023-07-29T01:59:49;17.52;74.62
74923;HTU21D;64715;44.760;37.678;2023-07-29T02:00:50;17.51;74.76
74923;HTU21D;64715;44.760;37.678;2023-07-29T02:01:51;17.51;74.58
74923;HTU21D;64715;44.760;37.678;2023-07-29T02:02:52;17.48;74.65
74923;HTU21D;64715;44.760;37.678;2023-07-29T02:03:53;17.48;74.78
74923;HTU21D;64715;44.760;37.678;2023-07-29T02:04:56;17.46;74.84
74923;HTU21D;64715;44.760;37.678;2023-07-29T02:05:57;17.47;74.89
74923;HTU21D;64715;44.760;37.678;2023-07-29T02:06:58;17.45;75.08
74923;HTU21D;64715;44.760;37.678;2023-07-29T02:08:01;17.46;75.04
74923;HTU21D;64715;44.760;37.678;2023-07-29T02:09:02;17.45;75.22
74923;HTU21D;64715;44.760;37.678;2023-07-29T02:10:05;17.47;75.25
74923;HTU21D;64715;44.760;37.678;2023-07-29T02:11:09;17.47;75.41
74923;HTU21D;64715;44.760;37.678;2023-07-29T02:12:10;17.46;75.40
74923;HTU21D;64715;44.760;37.678;2023-07-29T02:13:12;17.48;75.40
74923;HTU21D;64715;44.760;37.678;2023-07-29T02:14:14;17.47;75.62
74923;HTU21D;64715;44.760;37.678;2023-07-29T02:15:15;17.47;75.61
74923;HTU21D;64715;44.760;37.678;2023-07-29T02:16:16;17.48;75.69
74923;HTU21D;64715;44.760;37.678;2023-07-29T02:17:17;17.49;75.78
74923;HTU21D;64715;44.760;37.678;2023-07-29T02:18:18;17.50;75.64
74923;HTU21D;64715;44.760;37.678;2023-07-29T02:19:19;17.51;75.75
74923;HTU21D;64715;44.760;37.678;2023-07-29T02:20:20;17.52;75.79
74923;HTU21D;64715;44.760;37.678;2023-07-29T02:21:21;17.53;75.89
74923;HTU21D;64715;44.760;37.678;2023-07-29T02:22:22;17.52;75.90
74923;HTU21D;64715;44.760;37.678;2023-07-29T02:23:23;17.52;75.83
74923;HTU21D;64715;44.760;37.678;2023-07-29T02:24:24;17.54;76.18
74923;HTU21D;64715;44.760;37.678;2023-07-29T02:25:25;17.56;76.06
74923;HTU21D;64715;44.760;37.678;2023-07-29T02:26:26;17.56;76.00
74923;HTU21D;64715;44.760;37.678;2023-07-29T02:27:27;17.59;76.19
74923;HTU21D;64715;44.760;37.678;2023-07-29T02:28:28;17.59;76.11
74923;HTU21D;64715;44.760;37.678;2023-07-29T02:29:30;17.61;76.08
74923;HTU21D;64715;44.760;37.678;2023-07-29T02:30:31;17.61;76.01
74923;HTU21D;64715;44.760;37.678;2023-07-29T02:31:32;17.63;76.13
74923;HTU21D;64715;44.760;37.678;2023-07-29T02:32:36;17.66;76.28
74923;HTU21D;64715;44.760;37.678;2023-07-29T02:33:37;17.72;76.40
74923;HTU21D;64715;44.760;37.678;2023-07-29T02:34:38;17.79;76.77
74923;HTU21D;64715;44.760;37.678;2023-07-29T02:35:40;17.92;77.13
74923;HTU21D;64715;44.760;37.678;2023-07-29T02:36:41;18.06;77.38
74923;HTU21D;64715;44.760;37.678;2023-07-29T02:37:42;18.27;77.45
74923;HTU21D;64715;44.760;37.678;2023-07-29T02:38:43;18.51;77.34
74923;HTU21D;64715;44.760;37.678;2023-07-29T02:39:45;18.77;77.35
74923;HTU21D;64715;44.760;37.678;2023-07-29T02:40:46;19.05;77.08
74923;HTU21D;64715;44.760;37.678;2023-07-29T02:41:47;19.32;76.91
74923;HTU21D;64715;44.760;37.678;2023-07-29T02:42:48;19.63;76.35
74923;HTU21D;64715;44.760;37.678;2023-07-29T02:43:49;19.96;75.91
74923;HTU21D;64715;44.760;37.678;2023-07-29T02:44:51;20.29;75.42
74923;HTU21D;64715;44.760;37.678;2023-07-29T02:45:52;20.62;74.87
74923;HTU21D;64715;44.760;37.678;2023-07-29T02:46:52;20.96;74.24
74923;HTU21D;64715;44.760;37.678;2023-07-29T02:47:56;21.33;73.58
74923;HTU21D;64715;44.760;37.678;2023-07-29T02:48:57;21.65;72.87
74923;HTU21D;64715;44.760;37.678;2023-07-29T02:49:58;22.02;72.16
74923;HTU21D;64715;44.760;37.678;2023-07-29T02:51:00;22.35;71.56
74923;HTU21D;64715;44.760;37.678;2023-07-29T02:52:01;22.68;70.74
74923;HTU21D;64715;44.760;37.678;2023-07-29T02:53:02;22.99;70.08
74923;HTU21D;64715;44.760;37.678;2023-07-29T02:54:03;23.32;69.26
74923;HTU21D;64715;44.760;37.678;2023-07-29T02:55:05;23.64;68.58
74923;HTU21D;64715;44.760;37.678;2023-07-29T02:56:06;23.96;67.84
74923;HTU21D;64715;44.760;37.678;2023-07-29T02:57:09;24.30;67.04
74923;HTU21D;64715;44.760;37.678;2023-07-29T02:58:10;24.63;66.45
74923;HTU21D;64715;44.760;37.678;2023-07-29T02:59:11;24.98;65.57
74923;HTU21D;64715;44.760;37.678;2023-07-29T03:00:13;25.31;64.72
74923;HTU21D;64715;44.760;37.678;2023-07-29T03:01:14;25.66;63.98
74923;HTU21D;64715;44.760;37.678;2023-07-29T03:02:15;25.98;63.13
74923;HTU21D;64715;44.760;37.678;2023-07-29T03:03:17;26.36;62.15
74923;HTU21D;64715;44.760;37.678;2023-07-29T03:04:19;26.70;61.14
74923;HTU21D;64715;44.760;37.678;2023-07-29T03:05:20;27.02;60.28
74923;HTU21D;64715;44.760;37.678;2023-07-29T03:06:22;27.36;59.52
74923;HTU21D;64715;44.760;37.678;2023-07-29T03:07:22;27.68;58.66
74923;HTU21D;64715;44.760;37.678;2023-07-29T03:08:23;27.98;57.69
74923;HTU21D;64715;44.760;37.678;2023-07-29T03:09:25;28.29;57.00
74923;HTU21D;64715;44.760;37.678;2023-07-29T03:10:26;28.59;56.13
74923;HTU21D;64715;44.760;37.678;2023-07-29T03:11:26;28.89;55.16
74923;HTU21D;64715;44.760;37.678;2023-07-29T03:12:28;29.20;54.42
74923;HTU21D;64715;44.760;37.678;2023-07-29T03:13:29;29.48;53.55
74923;HTU21D;64715;44.760;37.678;2023-07-29T03:14:29;29.76;52.88
74923;HTU21D;64715;44.760;37.678;2023-07-29T03:15:33;30.06;52.04
74923;HTU21D;64715;44.760;37.678;2023-07-29T03:16:35;30.31;51.03
74923;HTU21D;64715;44.760;37.678;2023-07-29T03:17:36;30.56;50.23
74923;HTU21D;64715;44.760;37.678;2023-07-29T03:18:37;30.81;49.44
74923;HTU21D;64715;44.760;37.678;2023-07-29T03:19:38;31.06;48.73
74923;HTU21D;64715;44.760;37.678;2023-07-29T03:20:39;31.31;48.03
74923;HTU21D;64715;44.760;37.678;2023-07-29T03:21:41;31.56;47.67
74923;HTU21D;64715;44.760;37.678;2023-07-29T03:22:42;31.83;47.08
74923;HTU21D;64715;44.760;37.678;2023-07-29T03:23:43;32.10;46.41
74923;HTU21D;64715;44.760;37.678;2023-07-29T03:24:45;32.37;45.85
74923;HTU21D;64715;44.760;37.678;2023-07-29T03:25:48;32.62;45.11
74923;HTU21D;64715;44.760;37.678;2023-07-29T03:26:51;32.89;44.57
74923;HTU21D;64715;44.760;37.678;2023-07-29T03:27:52;33.15;43.72
74923;HTU21D;64715;44.760;37.678;2023-07-29T03:28:53;33.38;42.99
74923;HTU21D;64715;44.760;37.678;2023-07-29T03:29:54;33.57;42.27
74923;HTU21D;64715;44.760;37.678;2023-07-29T03:30:56;33.73;41.58
74923;HTU21D;64715;44.760;37.678;2023-07-29T03:31:57;33.83;41.15
74923;HTU21D;64715;44.760;37.678;2023-07-29T03:32:58;33.92;40.72
74923;HTU21D;64715;44.760;37.678;2023-07-29T03:33:59;33.97;40.21
74923;HTU21D;64715;44.760;37.678;2023-07-29T03:35:00;34.05;39.75
74923;HTU21D;64715;44.760;37.678;2023-07-29T03:36:01;34.16;39.54
74923;HTU21D;64715;44.760;37.678;2023-07-29T03:37:03;34.29;39.07
74923;HTU21D;64715;44.760;37.678;2023-07-29T03:38:04;34.44;38.83
74923;HTU21D;64715;44.760;37.678;2023-07-29T03:39:05;34.61;38.53
74923;HTU21D;64715;44.760;37.678;2023-07-29T03:40:08;34.83;38.24
74923;HTU21D;64715;44.760;37.678;2023-07-29T03:41:12;35.06;37.96
74923;HTU21D;64715;44.760;37.678;2023-07-29T03:42:13;35.26;37.39
74923;HTU21D;64715;44.760;37.678;2023-07-29T03:43:14;35.43;36.87
74923;HTU21D;64715;44.760;37.678;2023-07-29T03:44:15;35.57;36.59
74923;HTU21D;64715;44.760;37.678;2023-07-29T03:45:16;35.78;36.02
74923;HTU21D;64715;44.760;37.678;2023-07-29T03:46:17;35.98;35.60
74923;HTU21D;64715;44.760;37.678;2023-07-29T03:47:21;36.16;35.19
74923;HTU21D;64715;44.760;37.678;2023-07-29T03:48:22;36.29;34.81
74923;HTU21D;64715;44.760;37.678;2023-07-29T03:49:23;36.41;34.62
74923;HTU21D;64715;44.760;37.678;2023-07-29T03:50:24;36.54;34.39
74923;HTU21D;64715;44.760;37.678;2023-07-29T03:51:25;36.70;34.22
74923;HTU21D;64715;44.760;37.678;2023-07-29T03:52:26;36.85;33.82
74923;HTU21D;64715;44.760;37.678;2023-07-29T03:53:27;37.03;33.60
74923;HTU21D;64715;44.760;37.678;2023-07-29T03:54:28;37.17;33.37
74923;HTU21D;64715;44.760;37.678;2023-07-29T03:55:30;37.36;32.93
74923;HTU21D;64715;44.760;37.678;2023-07-29T03:56:31;37.52;32.69
74923;HTU21D;64715;44.760;37.678;2023-07-29T03:57:31;37.65;32.57
74923;HTU21D;64715;44.760;37.678;2023-07-29T03:58:33;37.80;32.43
74923;HTU21D;64715;44.760;37.678;2023-07-29T03:59:34;37.95;32.22
74923;HTU21D;64715;44.760;37.678;2023-07-29T04:00:35;38.11;32.06
74923;HTU21D;64715;44.760;37.678;2023-07-29T04:01:36;38.29;31.92
74923;HTU21D;64715;44.760;37.678;2023-07-29T04:02:37;38.44;31.48
74923;HTU21D;64715;44.760;37.678;2023-07-29T04:03:39;38.59;31.29
74923;HTU21D;64715;44.760;37.678;2023-07-29T04:04:40;38.74;30.95
74923;HTU21D;64715;44.760;37.678;2023-07-29T04:05:43;38.88;30.75
74923;HTU21D;64715;44.760;37.678;2023-07-29T04:06:44;39.03;30.67
74923;HTU21D;64715;44.760;37.678;2023-07-29T04:07:45;39.21;30.13
74923;HTU21D;64715;44.760;37.678;2023-07-29T04:08:46;39.32;30.02
74923;HTU21D;64715;44.760;37.678;2023-07-29T04:09:47;39.44;29.77
74923;HTU21D;64715;44.760;37.678;2023-07-29T04:10:49;39.59;29.68
74923;HTU21D;64715;44.760;37.678;2023-07-29T04:11:51;39.79;29.41
74923;HTU21D;64715;44.760;37.678;2023-07-29T04:12:52;39.97;29.26
74923;HTU21D;64715;44.760;37.678;2023-07-29T04:13:53;40.19;28.90
74923;HTU21D;64715;44.760;37.678;2023-07-29T04:14:54;40.38;28.58
74923;HTU21D;64715;44.760;37.678;2023-07-29T04:15:55;40.57;28.12
74923;HTU21D;64715;44.760;37.678;2023-07-29T04:16:56;40.69;27.91
74923;HTU21D;64715;44.760;37.678;2023-07-29T04:17:57;40.84;27.74
74923;HTU21D;64715;44.760;37.678;2023-07-29T04:18:58;40.99;27.33
74923;HTU21D;64715;44.760;37.678;2023-07-29T04:19:59;41.12;26.82
74923;HTU21D;64715;44.760;37.678;2023-07-29T04:21:06;41.22;26.71
74923;HTU21D;64715;44.760;37.678;2023-07-29T04:22:07;41.32;26.64
74923;HTU21D;64715;44.760;37.678;2023-07-29T04:23:09;41.40;26.26
74923;HTU21D;64715;44.760;37.678;2023-07-29T04:24:10;41.41;26.35
74923;HTU21D;64715;44.760;37.678;2023-07-29T04:25:11;41.46;26.07
74923;HTU21D;64715;44.760;37.678;2023-07-29T04:26:13;41.49;25.88
74923;HTU21D;64715;44.760;37.678;2023-07-29T04:27:14;41.54;25.83
74923;HTU21D;64715;44.760;37.678;2023-07-29T04:28:15;41.57;25.59
74923;HTU21D;64715;44.760;37.678;2023-07-29T04:29:16;41.61;25.37
74923;HTU21D;64715;44.760;37.678;2023-07-29T04:30:17;41.67;25.35
74923;HTU21D;64715;44.760;37.678;2023-07-29T04:31:18;41.76;25.27
74923;HTU21D;64715;44.760;37.678;2023-07-29T04:32:20;41.85;24.94
74923;HTU21D;64715;44.760;37.678;2023-07-29T04:33:21;41.89;24.79
74923;HTU21D;64715;44.760;37.678;2023-07-29T04:34:22;41.94;24.62
74923;HTU21D;64715;44.760;37.678;2023-07-29T04:35:23;41.98;24.31
74923;HTU21D;64715;44.760;37.678;2023-07-29T04:36:24;41.98;24.32
74923;HTU21D;64715;44.760;37.678;2023-07-29T04:37:25;42.00;24.09
74923;HTU21D;64715;44.760;37.678;2023-07-29T04:38:31;41.99;24.17
74923;HTU21D;64715;44.760;37.678;2023-07-29T04:39:33;42.00;24.29
74923;HTU21D;64715;44.760;37.678;2023-07-29T04:40:34;41.98;24.19
74923;HTU21D;64715;44.760;37.678;2023-07-29T04:41:36;42.01;24.13
74923;HTU21D;64715;44.760;37.678;2023-07-29T04:42:37;42.06;24.13
74923;HTU21D;64715;44.760;37.678;2023-07-29T04:43:38;42.14;23.96
74923;HTU21D;64715;44.760;37.678;2023-07-29T04:44:39;42.22;23.59
74923;HTU21D;64715;44.760;37.678;2023-07-29T04:45:43;42.29;23.50
74923;HTU21D;64715;44.760;37.678;2023-07-29T04:46:44;42.30;23.33
74923;HTU21D;64715;44.760;37.678;2023-07-29T04:47:45;42.31;23.33
74923;HTU21D;64715;44.760;37.678;2023-07-29T04:48:46;42.32;23.21
74923;HTU21D;64715;44.760;37.678;2023-07-29T04:49:47;42.33;23.17
74923;HTU21D;64715;44.760;37.678;2023-07-29T04:50:48;42.38;23.08
74923;HTU21D;64715;44.760;37.678;2023-07-29T04:51:49;42.43;23.05
74923;HTU21D;64715;44.760;37.678;2023-07-29T04:52:50;42.49;22.97
74923;HTU21D;64715;44.760;37.678;2023-07-29T04:53:51;42.53;22.70
74923;HTU21D;64715;44.760;37.678;2023-07-29T04:54:52;42.59;22.80
74923;HTU21D;64715;44.760;37.678;2023-07-29T04:55:53;42.65;22.88
74923;HTU21D;64715;44.760;37.678;2023-07-29T04:56:54;42.70;22.58
74923;HTU21D;64715;44.760;37.678;2023-07-29T04:57:55;42.73;22.44
74923;HTU21D;64715;44.760;37.678;2023-07-29T04:58:56;42.80;22.35
74923;HTU21D;64715;44.760;37.678;2023-07-29T04:59:58;42.84;22.27
74923;HTU21D;64715;44.760;37.678;2023-07-29T05:01:00;42.84;22.29
74923;HTU21D;64715;44.760;37.678;2023-07-29T05:02:01;42.87;22.15
74923;HTU21D;64715;44.760;37.678;2023-07-29T05:03:03;42.88;22.32
74923;HTU21D;64715;44.760;37.678;2023-07-29T05:04:04;42.91;22.31
74923;HTU21D;64715;44.760;37.678;2023-07-29T05:05:06;42.97;22.21
74923;HTU21D;64715;44.760;37.678;2023-07-29T05:06:07;43.05;21.95
74923;HTU21D;64715;44.760;37.678;2023-07-29T05:07:08;43.08;21.77
74923;HTU21D;64715;44.760;37.678;2023-07-29T05:08:09;43.02;21.72
74923;HTU21D;64715;44.760;37.678;2023-07-29T05:10:15;42.94;21.79
74923;HTU21D;64715;44.760;37.678;2023-07-29T05:11:16;42.93;21.85
74923;HTU21D;64715;44.760;37.678;2023-07-29T05:12:17;42.94;21.65
74923;HTU21D;64715;44.760;37.678;2023-07-29T05:13:18;42.94;21.57
74923;HTU21D;64715;44.760;37.678;2023-07-29T05:14:20;42.92;21.47
74923;HTU21D;64715;44.760;37.678;2023-07-29T05:15:21;42.85;21.31
74923;HTU21D;64715;44.760;37.678;2023-07-29T05:16:22;42.81;21.20
74923;HTU21D;64715;44.760;37.678;2023-07-29T05:17:23;42.66;21.32
74923;HTU21D;64715;44.760;37.678;2023-07-29T05:18:24;42.48;21.50
74923;HTU21D;64715;44.760;37.678;2023-07-29T05:19:25;42.21;21.48
74923;HTU21D;64715;44.760;37.678;2023-07-29T05:20:26;41.86;21.86
74923;HTU21D;64715;44.760;37.678;2023-07-29T05:21:27;41.62;22.06
74923;HTU21D;64715;44.760;37.678;2023-07-29T05:22:28;41.43;22.31
74923;HTU21D;64715;44.760;37.678;2023-07-29T05:23:29;41.34;22.53
74923;HTU21D;64715;44.760;37.678;2023-07-29T05:24:30;41.30;22.50
74923;HTU21D;64715;44.760;37.678;2023-07-29T05:25:32;41.22;22.48
74923;HTU21D;64715;44.760;37.678;2023-07-29T05:26:35;41.18;22.53
74923;HTU21D;64715;44.760;37.678;2023-07-29T05:27:36;41.13;22.50
74923;HTU21D;64715;44.760;37.678;2023-07-29T05:28:39;41.06;22.76
74923;HTU21D;64715;44.760;37.678;2023-07-29T05:29:40;41.03;22.88
74923;HTU21D;64715;44.760;37.678;2023-07-29T05:30:44;41.06;22.80
74923;HTU21D;64715;44.760;37.678;2023-07-29T05:31:46;41.11;22.94
74923;HTU21D;64715;44.760;37.678;2023-07-29T05:32:46;41.14;23.05
74923;HTU21D;64715;44.760;37.678;2023-07-29T05:33:47;41.17;22.95
74923;HTU21D;64715;44.760;37.678;2023-07-29T05:34:48;41.19;22.74
74923;HTU21D;64715;44.760;37.678;2023-07-29T05:35:49;41.13;22.70
74923;HTU21D;64715;44.760;37.678;2023-07-29T05:36:50;41.01;22.92
74923;HTU21D;64715;44.760;37.678;2023-07-29T05:37:51;40.89;22.98
74923;HTU21D;64715;44.760;37.678;2023-07-29T05:38:52;40.65;23.18
74923;HTU21D;64715;44.760;37.678;2023-07-29T05:39:53;40.45;23.41
74923;HTU21D;64715;44.760;37.678;2023-07-29T05:40:54;40.35;23.72
74923;HTU21D;64715;44.760;37.678;2023-07-29T05:41:55;40.28;23.72
74923;HTU21D;64715;44.760;37.678;2023-07-29T05:42:57;40.18;23.88
74923;HTU21D;64715;44.760;37.678;2023-07-29T05:43:58;40.10;23.88
74923;HTU21D;64715;44.760;37.678;2023-07-29T05:44:59;39.96;23.90
74923;HTU21D;64715;44.760;37.678;2023-07-29T05:46:00;39.72;24.14
74923;HTU21D;64715;44.760;37.678;2023-07-29T05:47:02;39.48;24.44
74923;HTU21D;64715;44.760;37.678;2023-07-29T05:48:04;39.25;24.94
74923;HTU21D;64715;44.760;37.678;2023-07-29T05:49:05;39.07;25.11
74923;HTU21D;64715;44.760;37.678;2023-07-29T05:50:06;38.86;25.28
74923;HTU21D;64715;44.760;37.678;2023-07-29T05:51:08;38.65;25.65
74923;HTU21D;64715;44.760;37.678;2023-07-29T05:52:10;38.48;26.03
74923;HTU21D;64715;44.760;37.678;2023-07-29T05:53:11;38.36;26.39
74923;HTU21D;64715;44.760;37.678;2023-07-29T05:54:12;38.29;26.51
74923;HTU21D;64715;44.760;37.678;2023-07-29T05:55:13;38.20;26.52
74923;HTU21D;64715;44.760;37.678;2023-07-29T05:56:14;38.11;26.69
74923;HTU21D;64715;44.760;37.678;2023-07-29T05:57:15;38.02;26.81
74923;HTU21D;64715;44.760;37.678;2023-07-29T05:58:16;37.89;26.79
74923;HTU21D;64715;44.760;37.678;2023-07-29T05:59:17;37.69;27.04
74923;HTU21D;64715;44.760;37.678;2023-07-29T06:00:18;37.51;27.17
74923;HTU21D;64715;44.760;37.678;2023-07-29T06:01:19;37.29;27.59
74923;HTU21D;64715;44.760;37.678;2023-07-29T06:02:22;37.08;27.64
74923;HTU21D;64715;44.760;37.678;2023-07-29T06:03:23;36.87;27.95
74923;HTU21D;64715;44.760;37.678;2023-07-29T06:04:25;36.71;28.29
74923;HTU21D;64715;44.760;37.678;2023-07-29T06:05:26;36.61;28.32
74923;HTU21D;64715;44.760;37.678;2023-07-29T06:06:27;36.55;28.65
74923;HTU21D;64715;44.760;37.678;2023-07-29T06:07:28;36.49;28.82
74923;HTU21D;64715;44.760;37.678;2023-07-29T06:08:31;36.44;28.93
74923;HTU21D;64715;44.760;37.678;2023-07-29T06:09:34;36.38;28.81
74923;HTU21D;64715;44.760;37.678;2023-07-29T06:10:36;36.29;28.84
74923;HTU21D;64715;44.760;37.678;2023-07-29T06:11:37;36.21;28.87
74923;HTU21D;64715;44.760;37.678;2023-07-29T06:12:38;36.11;28.95
74923;HTU21D;64715;44.760;37.678;2023-07-29T06:13:40;36.00;29.17
74923;HTU21D;64715;44.760;37.678;2023-07-29T06:14:41;35.89;29.16
74923;HTU21D;64715;44.760;37.678;2023-07-29T06:15:43;35.74;29.45
74923;HTU21D;64715;44.760;37.678;2023-07-29T06:16:44;35.60;29.86
74923;HTU21D;64715;44.760;37.678;2023-07-29T06:17:45;35.49;30.05
74923;HTU21D;64715;44.760;37.678;2023-07-29T06:18:46;35.36;30.11
74923;HTU21D;64715;44.760;37.678;2023-07-29T06:19:48;35.26;30.45
74923;HTU21D;64715;44.760;37.678;2023-07-29T06:20:49;35.15;30.61
74923;HTU21D;64715;44.760;37.678;2023-07-29T06:21:50;35.04;30.75
74923;HTU21D;64715;44.760;37.678;2023-07-29T06:22:51;34.94;30.71
74923;HTU21D;64715;44.760;37.678;2023-07-29T06:23:52;34.82;30.57
74923;HTU21D;64715;44.760;37.678;2023-07-29T06:24:53;34.66;30.22
74923;HTU21D;64715;44.760;37.678;2023-07-29T06:25:54;34.38;30.02